SWR15X KJFK-LSZH
Flight info
| Callsign | SWR15X |
|---|---|
| Flight time | N/A |
| Altitude | 39000 |
| Route | HAPIE DCT YAHOO DCT WHALE N251A JOOPY/M080F400 NATY ELSOX/M079F390 DCT GAPLI/N0450F390 DCT LIZAD DCT JSY DCT ARSUK DCT RESMI DCT TEPRI DCT POGZI DCT GELTA DCT MANAG DCT PEVIT DCT BLM |
| Aircraft | A333/H-SDE3GHIJ2J3J5M1RVWXY/LB2D1 |
Departure
| Time | 2026-05-08 02:44 |
|---|---|
| Airport | John F. Kennedy International Airport (KJFK) |
Arrival
| Time | N/A |
|---|---|
| Airport | Zürich Airport (LSZH) |
| Time | Latitude | Longitude | Altitude | Speed | Heading |
|---|---|---|---|---|---|
| 2026-05-08 01:38 | 40.64284 | -73.79199 | 30 ft | 0 kts | 105° |
| 2026-05-08 02:22 | 40.64285 | -73.79203 | 30 ft | 2 kts | 105° |
| 2026-05-08 02:22 | 40.64290 | -73.79223 | 30 ft | 2 kts | 109° |
| 2026-05-08 02:23 | 40.64296 | -73.79243 | 30 ft | 2 kts | 115° |
| 2026-05-08 02:23 | 40.64303 | -73.79260 | 30 ft | 2 kts | 126° |
| 2026-05-08 02:23 | 40.64314 | -73.79274 | 30 ft | 2 kts | 143° |
| 2026-05-08 02:23 | 40.64324 | -73.79281 | 30 ft | 2 kts | 171° |
| 2026-05-08 02:24 | 40.64329 | -73.79280 | 30 ft | 2 kts | 209° |
| 2026-05-08 02:24 | 40.64334 | -73.79274 | 30 ft | 0 kts | 227° |
| 2026-05-08 02:29 | 40.64320 | -73.79292 | 30 ft | 5 kts | 225° |
| 2026-05-08 02:29 | 40.64299 | -73.79319 | 30 ft | 4 kts | 225° |
| 2026-05-08 02:29 | 40.64270 | -73.79358 | 30 ft | 11 kts | 225° |
| 2026-05-08 02:30 | 40.64215 | -73.79446 | 30 ft | 13 kts | 239° |
| 2026-05-08 02:30 | 40.64200 | -73.79494 | 30 ft | 0 kts | 239° |
| 2026-05-08 02:30 | 40.64197 | -73.79498 | 30 ft | 2 kts | 220° |
| 2026-05-08 02:30 | 40.64177 | -73.79500 | 30 ft | 7 kts | 170° |
| 2026-05-08 02:31 | 40.64100 | -73.79500 | 30 ft | 12 kts | 185° |
| 2026-05-08 02:31 | 40.64022 | -73.79503 | 30 ft | 10 kts | 168° |
| 2026-05-08 02:31 | 40.63971 | -73.79462 | 30 ft | 8 kts | 138° |
| 2026-05-08 02:31 | 40.63945 | -73.79413 | 30 ft | 6 kts | 121° |
| 2026-05-08 02:32 | 40.63924 | -73.79368 | 30 ft | 5 kts | 122° |
| 2026-05-08 02:32 | 40.63899 | -73.79317 | 30 ft | 12 kts | 122° |
| 2026-05-08 02:32 | 40.63831 | -73.79176 | 30 ft | 21 kts | 122° |
| 2026-05-08 02:32 | 40.63764 | -73.79021 | 30 ft | 19 kts | 121° |
| 2026-05-08 02:33 | 40.63699 | -73.78881 | 30 ft | 17 kts | 121° |
| 2026-05-08 02:33 | 40.63638 | -73.78749 | 30 ft | 16 kts | 121° |
| 2026-05-08 02:33 | 40.63584 | -73.78631 | 30 ft | 14 kts | 121° |
| 2026-05-08 02:33 | 40.63535 | -73.78521 | 30 ft | 13 kts | 121° |
| 2026-05-08 02:34 | 40.63488 | -73.78418 | 30 ft | 16 kts | 121° |
| 2026-05-08 02:34 | 40.63422 | -73.78273 | 30 ft | 18 kts | 121° |
| 2026-05-08 02:34 | 40.63362 | -73.78133 | 30 ft | 16 kts | 112° |
| 2026-05-08 02:34 | 40.63323 | -73.78001 | 30 ft | 13 kts | 97° |
| 2026-05-08 02:35 | 40.63345 | -73.77905 | 30 ft | 10 kts | 65° |
| 2026-05-08 02:35 | 40.63379 | -73.77828 | 30 ft | 9 kts | 45° |
| 2026-05-08 02:35 | 40.63430 | -73.77773 | 30 ft | 10 kts | 35° |
| 2026-05-08 02:35 | 40.63485 | -73.77727 | 30 ft | 9 kts | 32° |
| 2026-05-08 02:36 | 40.63540 | -73.77683 | 30 ft | 10 kts | 31° |
| 2026-05-08 02:36 | 40.63600 | -73.77635 | 30 ft | 10 kts | 31° |
| 2026-05-08 02:36 | 40.63650 | -73.77596 | 30 ft | 9 kts | 31° |
| 2026-05-08 02:36 | 40.63704 | -73.77554 | 30 ft | 10 kts | 31° |
| 2026-05-08 02:37 | 40.63785 | -73.77490 | 30 ft | 15 kts | 31° |
| 2026-05-08 02:37 | 40.63866 | -73.77426 | 30 ft | 14 kts | 31° |
| 2026-05-08 02:37 | 40.63947 | -73.77363 | 30 ft | 13 kts | 31° |
| 2026-05-08 02:37 | 40.64026 | -73.77300 | 30 ft | 13 kts | 31° |
| 2026-05-08 02:38 | 40.64097 | -73.77244 | 30 ft | 12 kts | 31° |
| 2026-05-08 02:38 | 40.64165 | -73.77190 | 30 ft | 11 kts | 31° |
| 2026-05-08 02:38 | 40.64228 | -73.77141 | 30 ft | 10 kts | 31° |
| 2026-05-08 02:38 | 40.64286 | -73.77096 | 30 ft | 9 kts | 31° |
| 2026-05-08 02:39 | 40.64339 | -73.77055 | 30 ft | 8 kts | 28° |
| 2026-05-08 02:39 | 40.64389 | -73.77022 | 30 ft | 8 kts | 23° |
| 2026-05-08 02:39 | 40.64438 | -73.77004 | 30 ft | 8 kts | 11° |
| 2026-05-08 02:39 | 40.64502 | -73.76984 | 30 ft | 10 kts | 19° |
| 2026-05-08 02:40 | 40.64564 | -73.76948 | 30 ft | 11 kts | 30° |
| 2026-05-08 02:40 | 40.64632 | -73.76895 | 30 ft | 11 kts | 31° |
| 2026-05-08 02:40 | 40.64697 | -73.76844 | 30 ft | 11 kts | 31° |
| 2026-05-08 02:40 | 40.64766 | -73.76789 | 30 ft | 17 kts | 31° |
| 2026-05-08 02:41 | 40.64912 | -73.76673 | 30 ft | 29 kts | 31° |
| 2026-05-08 02:41 | 40.65066 | -73.76555 | 30 ft | 10 kts | 28° |
| 2026-05-08 02:41 | 40.65092 | -73.76523 | 30 ft | 5 kts | 71° |
| 2026-05-08 02:41 | 40.65092 | -73.76467 | 30 ft | 6 kts | 106° |
| 2026-05-08 02:42 | 40.65068 | -73.76405 | 30 ft | 13 kts | 117° |
| 2026-05-08 02:42 | 40.65031 | -73.76361 | 30 ft | 1 kts | 172° |
| 2026-05-08 02:42 | 40.65025 | -73.76362 | 30 ft | 2 kts | 188° |
| 2026-05-08 02:42 | 40.65019 | -73.76366 | 30 ft | 0 kts | 210° |
| 2026-05-08 02:43 | 40.64963 | -73.76406 | 30 ft | 23 kts | 208° |
| 2026-05-08 02:43 | 40.64710 | -73.76598 | 30 ft | 63 kts | 212° |
| 2026-05-08 02:43 | 40.64209 | -73.76987 | 30 ft | 104 kts | 211° |
| 2026-05-08 02:44 | 40.63475 | -73.77558 | 31 ft | 139 kts | 208° |
| 2026-05-08 02:44 | 40.62910 | -73.77986 | 173 ft | 147 kts | 207° |
| 2026-05-08 02:44 | 40.61745 | -73.78854 | 707 ft | 149 kts | 209° |
| 2026-05-08 02:44 | 40.60849 | -73.79472 | 1188 ft | 150 kts | 202° |
| 2026-05-08 02:45 | 40.59788 | -73.79350 | 1425 ft | 164 kts | 146° |
| 2026-05-08 02:45 | 40.59076 | -73.78203 | 1858 ft | 164 kts | 113° |
| 2026-05-08 02:45 | 40.58619 | -73.76824 | 2325 ft | 165 kts | 111° |
| 2026-05-08 02:45 | 40.58251 | -73.75466 | 2734 ft | 167 kts | 104° |
| 2026-05-08 02:46 | 40.57979 | -73.74437 | 3024 ft | 169 kts | 106° |
| 2026-05-08 02:46 | 40.57594 | -73.72948 | 3415 ft | 173 kts | 106° |
| 2026-05-08 02:46 | 40.57210 | -73.71417 | 3788 ft | 179 kts | 107° |
| 2026-05-08 02:46 | 40.56818 | -73.69852 | 4154 ft | 185 kts | 108° |
| 2026-05-08 02:47 | 40.56403 | -73.68189 | 4530 ft | 192 kts | 109° |
| 2026-05-08 02:47 | 40.55981 | -73.66499 | 4904 ft | 198 kts | 110° |
| 2026-05-08 02:47 | 40.55549 | -73.64766 | 5276 ft | 205 kts | 110° |
| 2026-05-08 02:47 | 40.55096 | -73.62954 | 5653 ft | 211 kts | 111° |
| 2026-05-08 02:48 | 40.54633 | -73.61103 | 6024 ft | 218 kts | 111° |
| 2026-05-08 02:48 | 40.54147 | -73.59163 | 6391 ft | 228 kts | 112° |
| 2026-05-08 02:48 | 40.53646 | -73.57169 | 6779 ft | 243 kts | 112° |
| 2026-05-08 02:48 | 40.53081 | -73.54927 | 7259 ft | 259 kts | 112° |
| 2026-05-08 02:49 | 40.52499 | -73.52611 | 7808 ft | 271 kts | 113° |
| 2026-05-08 02:49 | 40.51900 | -73.50224 | 8397 ft | 280 kts | 114° |
| 2026-05-08 02:49 | 40.51273 | -73.47743 | 9006 ft | 289 kts | 115° |
| 2026-05-08 02:49 | 40.50628 | -73.45229 | 9608 ft | 298 kts | 116° |
| 2026-05-08 02:50 | 40.49947 | -73.42582 | 10223 ft | 306 kts | 116° |
| 2026-05-08 02:50 | 40.49270 | -73.39927 | 10821 ft | 314 kts | 116° |
| 2026-05-08 02:50 | 40.48569 | -73.37157 | 11417 ft | 323 kts | 116° |
| 2026-05-08 02:50 | 40.47856 | -73.34331 | 11996 ft | 331 kts | 117° |
| 2026-05-08 02:51 | 40.47127 | -73.31436 | 12567 ft | 338 kts | 117° |
| 2026-05-08 02:51 | 40.46381 | -73.28477 | 13125 ft | 346 kts | 117° |
| 2026-05-08 02:51 | 40.45608 | -73.25413 | 13671 ft | 355 kts | 117° |
| 2026-05-08 02:51 | 40.44825 | -73.22308 | 14197 ft | 363 kts | 117° |
| 2026-05-08 02:52 | 40.44023 | -73.19137 | 14706 ft | 371 kts | 117° |
| 2026-05-08 02:52 | 40.43193 | -73.15866 | 15198 ft | 379 kts | 117° |
| 2026-05-08 02:52 | 40.42362 | -73.12599 | 15660 ft | 387 kts | 116° |
| 2026-05-08 02:52 | 40.41491 | -73.09186 | 16114 ft | 395 kts | 116° |
| 2026-05-08 02:53 | 40.40611 | -73.05751 | 16542 ft | 403 kts | 116° |
| 2026-05-08 02:53 | 40.39702 | -73.02227 | 16952 ft | 412 kts | 116° |
| 2026-05-08 02:53 | 40.38941 | -72.98491 | 17429 ft | 425 kts | 105° |
| 2026-05-08 02:53 | 40.38857 | -72.94642 | 17992 ft | 435 kts | 87° |
| 2026-05-08 02:54 | 40.39517 | -72.90728 | 18484 ft | 442 kts | 71° |
| 2026-05-08 02:54 | 40.40566 | -72.86889 | 18882 ft | 449 kts | 69° |
| 2026-05-08 02:54 | 40.41701 | -72.83040 | 19235 ft | 456 kts | 68° |
| 2026-05-08 02:54 | 40.42869 | -72.79131 | 19560 ft | 464 kts | 68° |
| 2026-05-08 02:55 | 40.43938 | -72.75095 | 19861 ft | 472 kts | 73° |
| 2026-05-08 02:55 | 40.45772 | -72.66707 | 20430 ft | 488 kts | 74° |
| 2026-05-08 02:55 | 40.46728 | -72.62418 | 20793 ft | 493 kts | 73° |
| 2026-05-08 02:56 | 40.47712 | -72.58027 | 21200 ft | 496 kts | 73° |
| 2026-05-08 02:56 | 40.48676 | -72.53709 | 21602 ft | 499 kts | 73° |
| 2026-05-08 02:56 | 40.49656 | -72.49301 | 21996 ft | 503 kts | 73° |
| 2026-05-08 02:56 | 40.50641 | -72.44861 | 22373 ft | 506 kts | 73° |
| 2026-05-08 02:57 | 40.51621 | -72.40435 | 22731 ft | 510 kts | 72° |
| 2026-05-08 02:57 | 40.52617 | -72.35933 | 23074 ft | 514 kts | 72° |
| 2026-05-08 02:57 | 40.53624 | -72.31367 | 23407 ft | 518 kts | 72° |
| 2026-05-08 02:57 | 40.54619 | -72.26847 | 23729 ft | 521 kts | 72° |
| 2026-05-08 02:58 | 40.55630 | -72.22248 | 24054 ft | 525 kts | 72° |
| 2026-05-08 02:58 | 40.56646 | -72.17615 | 24379 ft | 528 kts | 73° |
| 2026-05-08 02:58 | 40.57661 | -72.12978 | 24697 ft | 531 kts | 73° |
| 2026-05-08 02:58 | 40.58692 | -72.08257 | 25014 ft | 534 kts | 73° |
| 2026-05-08 02:59 | 40.59709 | -72.03587 | 25318 ft | 536 kts | 73° |
| 2026-05-08 02:59 | 40.60737 | -71.98862 | 25616 ft | 539 kts | 73° |
| 2026-05-08 02:59 | 40.61769 | -71.94102 | 25908 ft | 542 kts | 74° |
| 2026-05-08 02:59 | 40.62798 | -71.89350 | 26193 ft | 544 kts | 74° |
| 2026-05-08 03:00 | 40.63842 | -71.84517 | 26474 ft | 547 kts | 74° |
| 2026-05-08 03:00 | 40.64879 | -71.79705 | 26745 ft | 549 kts | 74° |
| 2026-05-08 03:00 | 40.65926 | -71.74831 | 27011 ft | 551 kts | 74° |
| 2026-05-08 03:00 | 40.66973 | -71.69955 | 27270 ft | 554 kts | 75° |
| 2026-05-08 03:01 | 40.68023 | -71.65052 | 27523 ft | 556 kts | 75° |
| 2026-05-08 03:01 | 40.69073 | -71.60132 | 27766 ft | 558 kts | 75° |
| 2026-05-08 03:01 | 40.70109 | -71.55268 | 27995 ft | 561 kts | 75° |
| 2026-05-08 03:01 | 40.71165 | -71.50302 | 28221 ft | 563 kts | 75° |
| 2026-05-08 03:02 | 40.72236 | -71.45250 | 28445 ft | 565 kts | 75° |
| 2026-05-08 03:02 | 40.73281 | -71.40310 | 28657 ft | 567 kts | 75° |
| 2026-05-08 03:02 | 40.74340 | -71.35295 | 28868 ft | 570 kts | 75° |
| 2026-05-08 03:02 | 40.75403 | -71.30242 | 29074 ft | 572 kts | 75° |
| 2026-05-08 03:03 | 40.76469 | -71.25169 | 29277 ft | 574 kts | 75° |
| 2026-05-08 03:03 | 40.77542 | -71.20050 | 29477 ft | 576 kts | 76° |
| 2026-05-08 03:03 | 40.78593 | -71.15021 | 29677 ft | 577 kts | 76° |
| 2026-05-08 03:03 | 40.79674 | -71.09836 | 29877 ft | 579 kts | 76° |
| 2026-05-08 03:04 | 40.80736 | -71.04731 | 30057 ft | 581 kts | 76° |
| 2026-05-08 03:04 | 40.81797 | -70.99619 | 30249 ft | 582 kts | 76° |
| 2026-05-08 03:04 | 40.82864 | -70.94467 | 30464 ft | 582 kts | 76° |
| 2026-05-08 03:04 | 40.83930 | -70.89302 | 30709 ft | 581 kts | 76° |
| 2026-05-08 03:05 | 40.84996 | -70.84125 | 30975 ft | 580 kts | 76° |
| 2026-05-08 03:05 | 40.86035 | -70.79069 | 31244 ft | 579 kts | 76° |
| 2026-05-08 03:05 | 40.87087 | -70.73929 | 31513 ft | 577 kts | 76° |
| 2026-05-08 03:05 | 40.88135 | -70.68814 | 31788 ft | 576 kts | 77° |
| 2026-05-08 03:06 | 40.89177 | -70.63703 | 32072 ft | 574 kts | 76° |
| 2026-05-08 03:06 | 40.90209 | -70.58627 | 32351 ft | 572 kts | 76° |
| 2026-05-08 03:06 | 40.91229 | -70.53598 | 32622 ft | 571 kts | 76° |
| 2026-05-08 03:06 | 40.92267 | -70.48474 | 32893 ft | 569 kts | 76° |
| 2026-05-08 03:07 | 40.93286 | -70.43430 | 33161 ft | 568 kts | 76° |
| 2026-05-08 03:07 | 40.94306 | -70.38366 | 33432 ft | 566 kts | 76° |
| 2026-05-08 03:07 | 40.95307 | -70.33384 | 33700 ft | 565 kts | 76° |
| 2026-05-08 03:07 | 40.96322 | -70.28318 | 33971 ft | 564 kts | 76° |
| 2026-05-08 03:08 | 40.97325 | -70.23303 | 34238 ft | 562 kts | 76° |
| 2026-05-08 03:08 | 40.98322 | -70.18301 | 34503 ft | 561 kts | 76° |
| 2026-05-08 03:08 | 40.99311 | -70.13329 | 34767 ft | 560 kts | 76° |
| 2026-05-08 03:08 | 41.00303 | -70.08333 | 35031 ft | 558 kts | 76° |
| 2026-05-08 03:09 | 41.01273 | -70.03433 | 35288 ft | 557 kts | 76° |
| 2026-05-08 03:09 | 41.02254 | -69.98464 | 35544 ft | 556 kts | 76° |
| 2026-05-08 03:09 | 41.03225 | -69.93535 | 35794 ft | 555 kts | 76° |
| 2026-05-08 03:09 | 41.04199 | -69.88574 | 36037 ft | 554 kts | 76° |
| 2026-05-08 03:10 | 41.05163 | -69.83657 | 36276 ft | 553 kts | 76° |
| 2026-05-08 03:10 | 41.06131 | -69.78703 | 36513 ft | 551 kts | 76° |
| 2026-05-08 03:10 | 41.07332 | -69.73877 | 36728 ft | 550 kts | 65° |
| 2026-05-08 03:10 | 41.09062 | -69.69403 | 36899 ft | 548 kts | 57° |
| 2026-05-08 03:11 | 41.11011 | -69.65034 | 37098 ft | 547 kts | 57° |
| 2026-05-08 03:11 | 41.12919 | -69.60672 | 37334 ft | 546 kts | 58° |
| 2026-05-08 03:11 | 41.14773 | -69.56337 | 37571 ft | 544 kts | 58° |
| 2026-05-08 03:11 | 41.16657 | -69.51914 | 37804 ft | 543 kts | 58° |
| 2026-05-08 03:12 | 41.18493 | -69.47609 | 38023 ft | 542 kts | 58° |
| 2026-05-08 03:12 | 41.20350 | -69.43253 | 38235 ft | 540 kts | 58° |
| 2026-05-08 03:12 | 41.22197 | -69.38911 | 38440 ft | 539 kts | 58° |
| 2026-05-08 03:12 | 41.24046 | -69.34560 | 38641 ft | 538 kts | 58° |
| 2026-05-08 03:13 | 41.25863 | -69.30276 | 38876 ft | 536 kts | 58° |
| 2026-05-08 03:13 | 41.27694 | -69.25952 | 39288 ft | 530 kts | 58° |
| 2026-05-08 03:13 | 41.29483 | -69.21721 | 39680 ft | 524 kts | 59° |
| 2026-05-08 03:13 | 41.31256 | -69.17524 | 39783 ft | 521 kts | 59° |
| 2026-05-08 03:14 | 41.33035 | -69.13306 | 39817 ft | 517 kts | 59° |
| 2026-05-08 03:14 | 41.36546 | -69.04967 | 39843 ft | 515 kts | 59° |
| 2026-05-08 03:15 | 41.40042 | -68.96638 | 39855 ft | 515 kts | 59° |
| 2026-05-08 03:15 | 41.43513 | -68.88346 | 39857 ft | 516 kts | 59° |
| 2026-05-08 03:16 | 41.47008 | -68.79973 | 39857 ft | 515 kts | 59° |
| 2026-05-08 03:16 | 41.50474 | -68.71644 | 39857 ft | 515 kts | 59° |
| 2026-05-08 03:17 | 41.53955 | -68.63258 | 39857 ft | 515 kts | 59° |
| 2026-05-08 03:17 | 41.57425 | -68.54874 | 39857 ft | 516 kts | 59° |
| 2026-05-08 03:18 | 41.60891 | -68.46477 | 39857 ft | 516 kts | 59° |
| 2026-05-08 03:18 | 41.64338 | -68.38101 | 39857 ft | 516 kts | 59° |
| 2026-05-08 03:19 | 41.67779 | -68.29716 | 39857 ft | 516 kts | 59° |
| 2026-05-08 03:19 | 41.71218 | -68.21314 | 39857 ft | 516 kts | 59° |
| 2026-05-08 03:20 | 41.74653 | -68.12893 | 39857 ft | 516 kts | 59° |
| 2026-05-08 03:20 | 41.78106 | -68.04408 | 39857 ft | 516 kts | 59° |
| 2026-05-08 03:21 | 41.81517 | -67.96000 | 39857 ft | 516 kts | 59° |
| 2026-05-08 03:21 | 41.84945 | -67.87526 | 39857 ft | 516 kts | 59° |
| 2026-05-08 03:22 | 41.88358 | -67.79065 | 39856 ft | 516 kts | 60° |
| 2026-05-08 03:22 | 41.91756 | -67.70618 | 39856 ft | 516 kts | 60° |
| 2026-05-08 03:23 | 41.95157 | -67.62137 | 39856 ft | 516 kts | 60° |
| 2026-05-08 03:23 | 41.98561 | -67.53625 | 39856 ft | 516 kts | 60° |
| 2026-05-08 03:24 | 42.01949 | -67.45128 | 39862 ft | 515 kts | 60° |
| 2026-05-08 03:24 | 42.05321 | -67.36650 | 39850 ft | 512 kts | 60° |
| 2026-05-08 03:25 | 42.08668 | -67.28204 | 39840 ft | 508 kts | 60° |
| 2026-05-08 03:25 | 42.11989 | -67.19803 | 39825 ft | 507 kts | 60° |
| 2026-05-08 03:26 | 42.15289 | -67.11431 | 39812 ft | 507 kts | 60° |
| 2026-05-08 03:26 | 42.18547 | -67.03139 | 39797 ft | 505 kts | 60° |
| 2026-05-08 03:27 | 42.22333 | -66.95159 | 39783 ft | 502 kts | 51° |
| 2026-05-08 03:27 | 42.26453 | -66.87613 | 39763 ft | 499 kts | 51° |
| 2026-05-08 03:28 | 42.30501 | -66.80063 | 39753 ft | 496 kts | 51° |
| 2026-05-08 03:28 | 42.34545 | -66.72512 | 39755 ft | 496 kts | 51° |
| 2026-05-08 03:29 | 42.38596 | -66.64927 | 39756 ft | 496 kts | 51° |
| 2026-05-08 03:29 | 42.42634 | -66.57347 | 39755 ft | 496 kts | 51° |
| 2026-05-08 03:30 | 42.48009 | -66.47230 | 39753 ft | 496 kts | 52° |
| 2026-05-08 03:31 | 42.56047 | -66.32033 | 39753 ft | 496 kts | 52° |
| 2026-05-08 03:32 | 42.62047 | -66.20641 | 39752 ft | 496 kts | 52° |
| 2026-05-08 03:32 | 42.66069 | -66.12982 | 39733 ft | 495 kts | 52° |
| 2026-05-08 03:33 | 42.70025 | -66.05427 | 39721 ft | 494 kts | 52° |
| 2026-05-08 03:33 | 42.74011 | -65.97794 | 39721 ft | 495 kts | 52° |
| 2026-05-08 03:34 | 42.78001 | -65.90136 | 39721 ft | 495 kts | 52° |
| 2026-05-08 03:34 | 42.81962 | -65.82513 | 39719 ft | 495 kts | 53° |
| 2026-05-08 03:35 | 42.85939 | -65.74840 | 39719 ft | 495 kts | 53° |